createdAt,value
2023-01-20T00:03:07.607Z,23.90
2023-01-20T00:08:11.403Z,23.48
2023-01-20T00:13:14.096Z,23.67
2023-01-20T00:18:17.211Z,20.90
2023-01-20T00:23:21.001Z,22.58
2023-01-20T00:28:23.480Z,25.77
2023-01-20T00:33:25.957Z,22.45
2023-01-20T00:38:29.774Z,26.20
2023-01-20T00:43:32.265Z,23.53
2023-01-20T00:48:34.897Z,24.47
2023-01-20T00:53:38.932Z,26.08
2023-01-20T00:58:43.493Z,26.27
2023-01-20T01:03:46.038Z,24.83
2023-01-20T01:08:50.032Z,26.70
2023-01-20T01:13:52.519Z,28.25
2023-01-20T01:18:55.591Z,28.63
2023-01-20T01:23:59.409Z,29.25
2023-01-20T01:29:01.867Z,29.85
2023-01-20T01:34:04.359Z,31.93
2023-01-20T01:39:08.317Z,33.50
2023-01-20T01:44:12.387Z,32.03
2023-01-20T01:49:18.939Z,28.08
2023-01-20T01:54:26.620Z,33.23
2023-01-20T01:59:29.267Z,29.65
2023-01-20T02:04:33.769Z,32.38
2023-01-20T02:09:38.697Z,30.73
2023-01-20T02:14:45.007Z,32.97
2023-01-20T02:20:11.409Z,32.78
2023-01-20T02:25:49.747Z,34.17
2023-01-20T02:31:09.517Z,34.97
2023-01-20T02:36:19.787Z,32.65
2023-01-20T02:41:27.283Z,38.08
2023-01-20T02:46:35.211Z,37.40
2023-01-20T02:51:45.045Z,34.97
2023-01-20T02:56:49.261Z,42.75
2023-01-20T03:01:55.938Z,36.50
2023-01-20T03:07:02.083Z,34.40
2023-01-20T03:12:12.817Z,40.17
2023-01-20T03:17:15.453Z,41.63
2023-01-20T03:22:19.479Z,45.30
2023-01-20T03:27:21.987Z,38.55
2023-01-20T03:32:26.828Z,39.25
2023-01-20T03:37:30.875Z,36.63
2023-01-20T03:42:42.924Z,44.55
2023-01-20T03:47:54.065Z,44.05
2023-01-20T03:53:02.383Z,43.57
2023-01-20T03:58:09.421Z,46.05
2023-01-20T04:03:17.286Z,50.05
2023-01-20T04:08:25.481Z,43.77
2023-01-20T04:13:27.937Z,50.27
2023-01-20T04:18:30.761Z,52.03
2023-01-20T04:23:40.532Z,49.83
2023-01-20T04:28:43.024Z,53.40
2023-01-20T04:33:45.499Z,48.50
2023-01-20T04:38:49.294Z,47.38
2023-01-20T04:43:51.758Z,45.27
2023-01-20T04:48:54.231Z,45.03
2023-01-20T04:53:59.051Z,48.80
2023-01-20T04:59:01.556Z,43.43
2023-01-20T05:04:04.111Z,40.77
2023-01-20T05:09:10.656Z,43.50
2023-01-20T05:14:13.855Z,43.05
2023-01-20T05:19:16.791Z,45.20
2023-01-20T05:24:20.830Z,43.55
2023-01-20T05:29:23.585Z,43.72
2023-01-20T05:34:26.082Z,45.37
2023-01-20T05:39:29.884Z,48.60
2023-01-20T05:44:32.396Z,43.45
2023-01-20T05:49:35.134Z,45.03
2023-01-20T05:54:38.971Z,46.73
2023-01-20T05:59:42.351Z,41.80
2023-01-20T06:04:44.905Z,46.45
2023-01-20T06:09:48.847Z,47.40
2023-01-20T06:14:51.654Z,44.30
2023-01-20T06:19:54.136Z,47.08
2023-01-20T06:24:57.920Z,43.73
2023-01-20T06:30:00.534Z,46.78
2023-01-20T06:35:03.048Z,46.83
2023-01-20T06:40:07.921Z,47.57
2023-01-20T06:45:11.507Z,42.13
2023-01-20T06:50:13.975Z,41.45
2023-01-20T06:55:18.035Z,42.50
2023-01-20T07:00:21.599Z,40.27
2023-01-20T07:05:24.079Z,45.90
2023-01-20T07:10:27.876Z,45.85
2023-01-20T07:15:30.331Z,47.73
2023-01-20T07:20:32.828Z,45.78
2023-01-20T07:25:37.931Z,42.95
2023-01-20T07:30:40.414Z,40.70
2023-01-20T07:35:42.907Z,43.77
2023-01-20T07:40:46.730Z,40.50
2023-01-20T07:45:49.217Z,43.38
2023-01-20T07:50:57.731Z,40.23
2023-01-20T07:56:02.963Z,40.53
2023-01-20T08:01:09.471Z,46.05
2023-01-20T08:06:13.629Z,45.00
2023-01-20T08:11:19.187Z,39.78
2023-01-20T08:16:22.434Z,43.78
2023-01-20T08:21:27.780Z,39.67
2023-01-20T08:26:32.333Z,40.67
2023-01-20T08:31:35.717Z,41.78
2023-01-20T08:36:41.275Z,38.58
2023-01-20T08:41:46.857Z,42.47
2023-01-20T08:46:52.496Z,42.05
2023-01-20T08:51:56.186Z,43.17
2023-01-20T08:56:59.975Z,38.33
2023-01-20T09:02:02.549Z,38.00
2023-01-20T09:07:06.238Z,37.30
2023-01-20T09:12:10.350Z,37.97
2023-01-20T09:17:14.576Z,40.27
2023-01-20T09:22:17.065Z,37.33
2023-01-20T09:27:21.055Z,37.97
2023-01-20T09:32:23.537Z,35.10
2023-01-20T09:37:43.600Z,33.58
2023-01-20T09:43:19.947Z,32.53
2023-01-20T09:48:51.850Z,33.53
2023-01-20T09:54:03.902Z,31.38
2023-01-20T09:59:13.214Z,32.05
2023-01-20T10:04:21.721Z,27.57
2023-01-20T10:09:33.790Z,33.17
2023-01-20T10:14:41.555Z,31.83
2023-01-20T10:19:51.778Z,34.08
2023-01-20T10:25:01.003Z,30.47
2023-01-20T10:30:09.820Z,30.70
2023-01-20T10:35:18.583Z,30.10
2023-01-20T10:40:33.542Z,31.80
2023-01-20T10:45:52.078Z,26.88
2023-01-20T10:51:04.177Z,28.60
2023-01-20T10:56:38.978Z,31.20
2023-01-20T11:06:59.596Z,29.00
2023-01-20T11:12:04.514Z,32.22
2023-01-20T11:17:09.344Z,28.20
2023-01-20T11:22:14.733Z,30.48
2023-01-20T11:27:19.418Z,31.20
2023-01-20T11:32:26.261Z,29.37
2023-01-20T11:37:37.884Z,30.42
2023-01-20T11:42:44.951Z,30.90
2023-01-20T11:47:47.528Z,28.60
2023-01-20T11:52:51.384Z,31.80
2023-01-20T11:57:56.550Z,28.42
2023-01-20T12:03:01.498Z,29.02
2023-01-20T12:08:11.161Z,30.00
2023-01-20T12:13:20.303Z,32.10
2023-01-20T12:18:35.402Z,29.98
2023-01-20T12:23:48.657Z,31.57
2023-01-20T12:28:58.271Z,30.95
2023-01-20T12:34:04.360Z,32.58
2023-01-20T12:39:29.325Z,28.30
2023-01-20T12:44:40.800Z,32.53
2023-01-20T12:50:02.421Z,29.00
2023-01-20T12:55:21.368Z,27.95
2023-01-20T13:00:37.498Z,29.63
2023-01-20T13:05:57.247Z,29.85
2023-01-20T13:11:12.507Z,33.22
2023-01-20T13:16:21.965Z,35.80
2023-01-20T13:21:24.441Z,32.15
2023-01-20T13:26:29.709Z,33.08
2023-01-20T13:31:44.114Z,33.47
2023-01-20T13:37:33.020Z,37.00
2023-01-20T13:42:51.279Z,34.08
2023-01-20T13:47:58.464Z,32.60
2023-01-20T13:53:27.779Z,31.43
2023-01-20T13:58:33.503Z,30.63
2023-01-20T14:03:38.010Z,33.15
2023-01-20T14:08:42.614Z,28.83
2023-01-20T14:13:54.269Z,31.92
2023-01-20T14:18:58.861Z,32.30
2023-01-20T14:24:01.326Z,32.67
2023-01-20T14:29:05.127Z,39.07
2023-01-20T14:34:24.397Z,31.92
2023-01-20T14:39:29.091Z,31.80
2023-01-20T14:44:33.578Z,32.03
2023-01-20T14:49:39.390Z,30.25
2023-01-20T14:54:44.897Z,29.90
2023-01-20T14:59:49.409Z,30.23
2023-01-20T15:04:51.889Z,31.50
2023-01-20T15:09:57.571Z,32.90
2023-01-20T15:15:13.041Z,47.67
2023-01-20T15:20:28.695Z,34.70
2023-01-20T15:25:31.595Z,35.78
2023-01-20T15:30:35.684Z,30.58
2023-01-20T15:35:38.190Z,33.27
2023-01-20T15:40:40.724Z,31.50
2023-01-20T15:45:44.964Z,32.75
2023-01-20T15:50:48.055Z,30.33
2023-01-20T15:55:52.350Z,32.63
2023-01-20T16:00:57.563Z,29.67
2023-01-20T16:06:00.113Z,29.47
2023-01-20T16:11:02.606Z,38.17
2023-01-20T16:16:13.181Z,31.15
2023-01-20T16:21:18.234Z,31.40
2023-01-20T16:26:23.087Z,31.53
2023-01-20T16:31:28.693Z,32.25
2023-01-20T16:36:31.420Z,29.75
2023-01-20T16:41:34.238Z,29.37
2023-01-20T16:46:39.126Z,29.55
2023-01-20T16:51:42.005Z,29.90
2023-01-20T16:56:44.477Z,30.90
2023-01-20T17:01:49.596Z,31.23
2023-01-20T17:06:53.554Z,32.78
2023-01-20T17:11:56.056Z,30.05
2023-01-20T17:17:00.141Z,30.37
2023-01-20T17:22:02.876Z,33.33
2023-01-20T17:27:05.467Z,34.97
2023-01-20T17:32:09.299Z,32.93
2023-01-20T17:37:11.783Z,28.90
2023-01-20T17:42:16.120Z,27.58
2023-01-20T17:47:21.385Z,30.70
2023-01-20T17:52:23.877Z,28.80
2023-01-20T17:57:27.207Z,33.75
2023-01-20T18:02:31.216Z,29.70
2023-01-20T18:07:33.783Z,31.03
2023-01-20T18:12:36.267Z,27.98
2023-01-20T18:17:43.245Z,31.08
2023-01-20T18:22:49.110Z,29.47
2023-01-20T18:27:51.575Z,28.98
2023-01-20T18:32:57.425Z,32.40
2023-01-20T18:38:01.785Z,37.60
2023-01-20T18:43:04.278Z,32.00
2023-01-20T18:48:09.800Z,34.45
2023-01-20T18:53:12.315Z,29.52
2023-01-20T18:58:16.451Z,25.13
2023-01-20T19:03:20.379Z,29.13
2023-01-20T19:08:22.893Z,29.02
2023-01-20T19:13:25.358Z,27.17
2023-01-20T19:18:29.193Z,27.40
2023-01-20T19:23:32.287Z,28.35
2023-01-20T19:28:35.783Z,28.63
2023-01-20T19:33:40.124Z,26.77
2023-01-20T19:38:43.025Z,26.38
2023-01-20T19:43:46.131Z,26.27
2023-01-20T19:48:49.930Z,23.50
2023-01-20T19:53:55.609Z,28.98
2023-01-20T19:59:00.473Z,30.40
2023-01-20T20:04:07.725Z,27.80
2023-01-20T20:09:12.796Z,28.40
2023-01-20T20:14:17.355Z,29.10
2023-01-20T20:19:21.220Z,28.50
2023-01-20T20:24:23.743Z,32.43
2023-01-20T20:29:26.285Z,28.00
2023-01-20T20:34:30.415Z,29.88
2023-01-20T20:39:32.904Z,37.77
2023-01-20T20:44:35.414Z,31.92
2023-01-20T20:49:39.345Z,34.25
2023-01-20T20:54:41.893Z,26.00
2023-01-20T20:59:58.225Z,30.92
2023-01-20T21:05:03.018Z,27.10
2023-01-20T21:10:06.499Z,25.27
2023-01-20T21:15:10.643Z,27.67
2023-01-20T21:20:14.863Z,28.92
2023-01-20T21:25:17.758Z,27.55
2023-01-20T21:30:20.756Z,27.53
2023-01-20T21:35:24.659Z,28.17
2023-01-20T21:40:27.261Z,28.90
2023-01-20T21:45:29.741Z,29.57
2023-01-20T21:50:59.732Z,27.90
2023-01-20T21:56:02.335Z,26.55
2023-01-20T22:01:04.990Z,25.63
2023-01-20T22:06:09.159Z,25.90
2023-01-20T22:11:11.706Z,29.48
2023-01-20T22:16:14.233Z,26.48
2023-01-20T22:21:18.835Z,26.87
2023-01-20T22:26:21.474Z,26.70
2023-01-20T22:31:24.885Z,29.50
2023-01-20T22:36:28.900Z,26.50
2023-01-20T22:41:31.720Z,32.72
2023-01-20T22:46:34.377Z,28.15
2023-01-20T22:51:38.280Z,29.50
2023-01-20T22:56:42.014Z,24.93
2023-01-20T23:01:44.508Z,28.00
2023-01-20T23:06:48.349Z,29.88
2023-01-20T23:11:51.344Z,26.50
2023-01-20T23:16:53.915Z,27.77
2023-01-20T23:21:57.740Z,26.92
2023-01-20T23:27:00.259Z,34.37
2023-01-20T23:32:02.881Z,35.53
2023-01-20T23:37:06.726Z,31.10
2023-01-20T23:42:09.202Z,35.50
2023-01-20T23:47:11.681Z,37.63
2023-01-20T23:52:15.634Z,31.85
2023-01-20T23:57:18.173Z,33.90
